Berkeley Springs, West Virginia
Current Conditions -  °F | °C
As of 5:34 PM on Monday 26 Jan 2015 (Local Time) from KMRB Reporting Station
Light Snow Light Snow  
Wind Chill: 16°   Ceiling: 2400
Heat Index: 27°   Visibility: 3mi
Dew Point: 22°   Wind: 13mph
Humidity: 81%   Direction: 10°N
Pressure: 29.76"   Gusts: NA
Location:  39.63°N, 78.23°W
Report Text: KMRB 262234Z 01011KT 3SM -SN OVC024 M03/M06 A2976 RMK AO2 P0000 T10281056
Loading
Personal Weather Stations






























Interactive Weather Map New forecast layout! Learn more

10-Day Weather Forecast

Advertisements
Track Severe Weather on mobile